Time;durP1;ratioP1;P1;durP2;ratioP2;P2;SDS_P1;SDS_P2;PMS_P1;PMS_P2;Temp;Humidity;BMP_temperature;BMP_pressure;BME280_temperature;BME280_humidity;BME280_pressure;Samples;Min_cycle;Max_cycle;Signal;HPM_P1;HPM_P2
2022/06/13 00:01:50;;;;;;;3.75;1.50;;;19.00;92.90;;;;;;5107030;28;20403;-76
2022/06/13 00:04:16;;;;;;;3.03;1.40;;;19.00;92.80;;;;;;5105293;28;20416;-76
2022/06/13 00:06:43;;;;;;;3.22;1.33;;;19.00;92.80;;;;;;5106715;28;20449;-75
2022/06/13 00:09:09;;;;;;;3.65;1.52;;;19.00;92.70;;;;;;5107471;28;20641;-77
2022/06/13 00:11:35;;;;;;;2.15;1.30;;;19.00;92.70;;;;;;5105576;28;20038;-77
2022/06/13 00:14:02;;;;;;;3.10;1.40;;;19.00;92.80;;;;;;5107154;28;20050;-76
2022/06/13 00:16:29;;;;;;;2.60;1.30;;;19.00;92.80;;;;;;5105252;28;20036;-76
2022/06/13 00:18:55;;;;;;;3.42;1.33;;;19.00;92.90;;;;;;5106766;28;20039;-77
2022/06/13 00:21:25;;;;;;;3.15;1.42;;;19.00;92.90;;;;;;5105368;28;20027;-76
2022/06/13 00:23:51;;;;;;;2.92;1.25;;;18.90;92.90;;;;;;5108533;27;20057;-76
2022/06/13 00:26:21;;;;;;;3.40;1.40;;;18.90;93.00;;;;;;5106251;28;20031;-77
2022/06/13 00:28:48;;;;;;;3.03;1.40;;;18.90;93.00;;;;;;5105254;28;20020;-76
2022/06/13 00:31:14;;;;;;;2.90;1.30;;;18.90;93.00;;;;;;5105575;28;20115;-76
2022/06/13 00:33:39;;;;;;;2.80;1.23;;;18.90;93.00;;;;;;5106509;28;20564;-76
2022/06/13 00:36:06;;;;;;;3.13;1.40;;;18.90;93.10;;;;;;5105183;28;20027;-77
2022/06/13 00:38:31;;;;;;;2.58;1.30;;;18.90;93.10;;;;;;5105802;28;20027;-76
2022/06/13 00:40:57;;;;;;;2.95;1.38;;;18.80;93.00;;;;;;5105460;28;20028;-76
2022/06/13 00:43:23;;;;;;;2.90;1.20;;;18.80;93.10;;;;;;5106539;28;20043;-77
2022/06/13 00:45:48;;;;;;;3.60;1.52;;;18.80;93.00;;;;;;5104625;28;20602;-76
2022/06/13 00:48:16;;;;;;;3.70;1.55;;;18.90;93.10;;;;;;5106726;28;20023;-76
2022/06/13 00:50:49;;;;;;;3.15;1.40;;;18.90;93.00;;;;;;5106098;28;20028;-76
2022/06/13 00:53:29;;;;;;;3.60;1.50;;;18.90;93.00;;;;;;5091047;28;20032;-76
2022/06/13 00:56:06;;;;;;;2.42;1.30;;;18.90;92.90;;;;;;5105104;28;20035;-76
2022/06/13 00:58:43;;;;;;;1.95;1.20;;;18.90;92.90;;;;;;5103200;28;20556;-76
2022/06/13 01:01:09;;;;;;;2.90;1.10;;;19.00;92.80;;;;;;5084916;28;20032;-76
2022/06/13 01:03:36;;;;;;;2.30;1.40;;;19.00;92.80;;;;;;5085012;28;20454;-76
2022/06/13 01:06:04;;;;;;;2.72;1.20;;;19.00;92.80;;;;;;5088115;28;20180;-76
2022/06/13 01:08:32;;;;;;;4.03;1.50;;;19.00;92.90;;;;;;5106359;28;20054;-76
2022/06/13 01:11:17;;;;;;;3.60;1.63;;;18.90;92.90;;;;;;5104922;28;20031;-76
2022/06/13 01:14:01;;;;;;;3.38;1.15;;;18.90;92.90;;;;;;5104664;28;20031;-74
2022/06/13 01:16:33;;;;;;;4.25;1.25;;;18.90;93.00;;;;;;5105594;28;20434;-76
2022/06/13 01:18:58;;;;;;;;;;;18.90;93.00;;;;;;5106424;28;20503;-77
2022/06/13 01:21:31;;;;;;;2.97;1.40;;;18.90;93.00;;;;;;5104737;28;19961;-77
2022/06/13 01:24:27;;;;;;;1.80;1.10;;;18.80;93.00;;;;;;5104636;28;20556;-76
2022/06/13 01:27:40;;;;;;;4.18;1.60;;;18.80;93.00;;;;;;5106177;28;20027;-76
2022/06/13 01:30:24;;;;;;;3.05;1.30;;;18.80;93.00;;;;;;5105623;28;20039;-76
2022/06/13 01:33:08;;;;;;;2.47;1.30;;;18.80;93.00;;;;;;5105335;28;20506;-76
2022/06/13 01:35:52;;;;;;;3.58;1.58;;;18.80;93.00;;;;;;5104203;28;20027;-76
2022/06/13 01:38:29;;;;;;;3.20;1.48;;;18.80;93.10;;;;;;5104845;28;20035;-77
2022/06/13 01:41:24;;;;;;;3.35;1.58;;;18.80;93.00;;;;;;5107712;28;20038;-77
2022/06/13 01:44:22;;;;;;;2.17;1.15;;;18.80;93.10;;;;;;5108350;28;20031;-76
2022/06/13 01:47:01;;;;;;;2.47;1.40;;;18.80;93.00;;;;;;5108708;28;20106;-77
2022/06/13 01:49:37;;;;;;;3.13;1.30;;;18.90;93.00;;;;;;5109634;28;20032;-76
2022/06/13 01:52:10;;;;;;;3.08;1.35;;;18.90;92.90;;;;;;5107489;28;20035;-76
2022/06/13 01:54:46;;;;;;;2.45;1.52;;;18.90;92.90;;;;;;5108772;27;20042;-75
2022/06/13 01:57:33;;;;;;;2.08;1.27;;;18.90;92.80;;;;;;5108504;28;20084;-76
2022/06/13 02:00:04;;;;;;;3.17;1.27;;;18.90;93.00;;;;;;5108478;28;20030;-77
2022/06/13 02:02:58;;;;;;;2.10;1.20;;;18.90;92.80;;;;;;5093089;28;20446;-76
2022/06/13 02:05:28;;;;;;;2.70;1.40;;;18.90;92.80;;;;;;5108346;28;20065;-77
2022/06/13 02:08:01;;;;;;;3.47;1.30;;;18.90;92.90;;;;;;5109458;28;20031;-77
2022/06/13 02:10:33;;;;;;;2.72;1.30;;;18.90;93.00;;;;;;5109347;28;20043;-75
2022/06/13 02:13:07;;;;;;;2.33;1.20;;;18.90;93.00;;;;;;5108163;28;20483;-76
2022/06/13 02:15:47;;;;;;;2.90;1.40;;;18.80;93.00;;;;;;5107726;28;20032;-77
2022/06/13 02:18:20;;;;;;;2.45;1.40;;;18.80;93.00;;;;;;5108112;28;20032;-75
2022/06/13 02:20:49;;;;;;;1.85;1.15;;;18.80;93.00;;;;;;5109276;28;20024;-76
2022/06/13 02:23:22;;;;;;;3.85;1.30;;;18.80;93.00;;;;;;5108085;28;20100;-77
2022/06/13 02:26:04;;;;;;;2.63;1.30;;;18.80;93.00;;;;;;5107168;28;20026;-76
2022/06/13 02:28:43;;;;;;;3.00;1.23;;;18.80;93.00;;;;;;5107777;28;20059;-76
2022/06/13 02:31:25;;;;;;;2.55;1.20;;;18.80;93.00;;;;;;5108645;28;20031;-76
2022/06/13 02:34:00;;;;;;;3.08;1.20;;;18.80;92.90;;;;;;5122743;27;20027;-76
2022/06/13 02:36:41;;;;;;;3.25;1.38;;;18.80;93.00;;;;;;5108268;28;20511;-76
2022/06/13 02:39:19;;;;;;;2.92;1.50;;;18.80;93.10;;;;;;5108374;28;20050;-76
2022/06/13 02:41:55;;;;;;;2.42;1.17;;;18.80;93.10;;;;;;5100150;28;20031;-76
2022/06/13 02:44:31;;;;;;;2.60;1.27;;;18.80;93.00;;;;;;5103301;28;20027;-74
2022/06/13 02:47:04;;;;;;;2.85;1.30;;;18.80;92.90;;;;;;5106991;28;20024;-75
2022/06/13 02:49:34;;;;;;;2.60;1.40;;;18.90;92.80;;;;;;5107600;28;20028;-76
2022/06/13 02:52:20;;;;;;;2.30;1.35;;;18.90;92.80;;;;;;5107369;28;20061;-76
2022/06/13 02:54:53;;;;;;;4.22;1.45;;;18.90;92.80;;;;;;5090353;28;20492;-77
2022/06/13 02:57:36;;;;;;;2.47;1.50;;;18.90;92.80;;;;;;5108747;28;20385;-76
2022/06/13 03:00:30;;;;;;;2.50;1.20;;;18.90;92.70;;;;;;5108310;28;20133;-76
2022/06/13 03:03:10;;;;;;;2.63;1.33;;;18.90;92.80;;;;;;5107458;28;20020;-76
2022/06/13 03:06:03;;;;;;;3.55;1.60;;;18.80;92.90;;;;;;5106438;28;20028;-77
2022/06/13 03:08:47;;;;;;;2.25;1.30;;;18.80;93.00;;;;;;5107544;28;20051;-77
2022/06/13 03:11:44;;;;;;;3.00;1.40;;;18.80;93.00;;;;;;5107154;28;20027;-74
2022/06/13 03:14:39;;;;;;;1.83;1.20;;;18.80;93.00;;;;;;5108125;28;20436;-76
2022/06/13 03:17:32;;;;;;;2.15;1.20;;;18.80;93.00;;;;;;5092354;28;20030;-75
2022/06/13 03:20:21;;;;;;;2.97;1.60;;;18.80;93.00;;;;;;5107911;28;20024;-77
2022/06/13 03:23:16;;;;;;;3.05;1.50;;;18.80;93.00;;;;;;5106945;28;20100;-77
2022/06/13 03:26:02;;;;;;;2.28;1.40;;;18.80;93.10;;;;;;5106587;28;20401;-77
2022/06/13 03:28:45;;;;;;;3.13;1.50;;;18.80;93.00;;;;;;5106729;28;20024;-77
2022/06/13 03:31:19;;;;;;;2.35;1.20;;;18.70;92.90;;;;;;5106884;28;20495;-76
2022/06/13 03:33:49;;;;;;;2.88;1.45;;;18.80;93.00;;;;;;5107491;28;20023;-77
2022/06/13 03:36:24;;;;;;;2.90;1.30;;;18.80;93.00;;;;;;5107868;28;20050;-77
2022/06/13 03:39:06;;;;;;;2.70;1.52;;;18.80;93.00;;;;;;5106437;28;20110;-76
2022/06/13 03:41:37;;;;;;;2.40;1.30;;;18.80;93.00;;;;;;5107837;28;20016;-75
2022/06/13 03:44:30;;;;;;;2.60;1.38;;;18.80;92.90;;;;;;5106657;28;20031;-74
2022/06/13 03:47:00;;;;;;;3.97;1.33;;;18.90;92.80;;;;;;5071166;28;20032;-76
2022/06/13 03:49:37;;;;;;;1.75;1.30;;;18.90;92.80;;;;;;5106780;28;20547;-76
2022/06/13 03:52:07;;;;;;;2.55;1.27;;;18.90;92.80;;;;;;5105640;28;20032;-76
2022/06/13 03:54:38;;;;;;;2.85;1.42;;;18.90;92.80;;;;;;5106789;28;20836;-75
2022/06/13 03:57:09;;;;;;;2.03;1.25;;;18.80;92.90;;;;;;5106244;28;20034;-75
2022/06/13 04:00:02;;;;;;;1.88;1.15;;;18.80;92.90;;;;;;5107310;28;20106;-76
2022/06/13 04:02:32;;;;;;;2.72;1.20;;;18.80;93.00;;;;;;5104854;28;20085;-76
2022/06/13 04:04:57;;;;;;;2.50;1.35;;;18.80;93.00;;;;;;5106449;28;20214;-76
2022/06/13 04:07:26;;;;;;;2.35;1.20;;;18.80;93.00;;;;;;5088178;28;20115;-76
2022/06/13 04:10:06;;;;;;;1.45;1.02;;;18.80;93.00;;;;;;5090538;28;20034;-76
2022/06/13 04:12:54;;;;;;;3.50;1.50;;;18.80;93.00;;;;;;5106386;28;20036;-76
2022/06/13 04:15:53;;;;;;;2.78;1.60;;;18.80;93.00;;;;;;5105007;28;20415;-76
2022/06/13 04:18:36;;;;;;;1.90;1.20;;;18.80;92.90;;;;;;5097623;28;20030;-76
2022/06/13 04:21:39;;;;;;;2.47;1.30;;;18.80;92.90;;;;;;5104885;28;20035;-76
2022/06/13 04:24:39;;;;;;;2.47;1.40;;;18.70;92.90;;;;;;5102336;28;20032;-75
2022/06/13 04:27:07;;;;;;;2.55;1.10;;;18.70;92.90;;;;;;5105293;28;20525;-77
2022/06/13 04:29:39;;;;;;;2.63;1.30;;;18.70;92.90;;;;;;5105457;28;20415;-76
2022/06/13 04:32:09;;;;;;;3.42;1.60;;;18.70;93.00;;;;;;5119644;27;20116;-76
2022/06/13 04:34:39;;;;;;;4.70;1.60;;;18.80;93.00;;;;;;5106315;28;20491;-76
2022/06/13 04:37:06;;;;;;;2.67;1.50;;;18.80;92.90;;;;;;5091349;28;20395;-76
2022/06/13 04:39:35;;;;;;;2.85;1.30;;;18.80;92.80;;;;;;5103482;28;20281;-77
2022/06/13 04:42:02;;;;;;;3.35;1.38;;;18.80;92.80;;;;;;5104436;28;20113;-76
2022/06/13 04:44:31;;;;;;;2.58;1.48;;;18.80;92.70;;;;;;5104486;28;20110;-76
2022/06/13 04:46:57;;;;;;;3.95;1.55;;;18.90;92.90;;;;;;5106206;28;20513;-77
2022/06/13 04:49:30;;;;;;;2.90;1.42;;;18.90;92.60;;;;;;5106160;28;20036;-76
2022/06/13 04:51:59;;;;;;;2.28;1.30;;;18.80;92.60;;;;;;5106605;28;20415;-76
2022/06/13 04:54:37;;;;;;;2.53;1.40;;;18.80;92.60;;;;;;5104292;28;20028;-75
2022/06/13 04:57:04;;;;;;;3.08;1.30;;;18.80;92.70;;;;;;5094187;28;20100;-76
2022/06/13 04:59:30;;;;;;;2.15;1.30;;;18.80;92.80;;;;;;5106293;28;20034;-76
2022/06/13 05:01:57;;;;;;;3.08;1.50;;;18.80;92.90;;;;;;5104022;28;20036;-77
2022/06/13 05:04:29;;;;;;;2.85;1.38;;;18.80;92.90;;;;;;5102426;28;20043;-75
2022/06/13 05:06:58;;;;;;;2.42;1.30;;;18.80;92.90;;;;;;5102168;28;20442;-75
2022/06/13 05:09:30;;;;;;;2.92;1.33;;;18.80;92.90;;;;;;5104610;28;20038;-75
2022/06/13 05:12:07;;;;;;;2.75;1.40;;;18.80;93.00;;;;;;5101581;28;20029;-75
2022/06/13 05:14:45;;;;;;;2.78;1.27;;;18.70;93.00;;;;;;5103361;28;20408;-75
2022/06/13 05:17:48;;;;;;;2.15;1.30;;;18.70;93.00;;;;;;5109153;28;20026;-74
2022/06/13 05:20:48;;;;;;;3.15;1.50;;;18.70;93.00;;;;;;5109096;28;20032;-75
2022/06/13 05:23:35;;;;;;;2.17;1.20;;;18.70;93.00;;;;;;5095310;28;20034;-74
2022/06/13 05:26:02;;;;;;;1.83;1.10;;;18.70;93.00;;;;;;5103008;28;20073;-75
2022/06/13 05:28:31;;;;;;;2.30;1.40;;;18.70;93.00;;;;;;5107740;28;20116;-73
2022/06/13 05:31:01;;;;;;;3.58;1.40;;;18.70;93.00;;;;;;5108475;28;20034;-75
2022/06/13 05:33:33;;;;;;;1.83;1.10;;;18.80;93.00;;;;;;5108049;28;20053;-75
2022/06/13 05:36:04;;;;;;;2.53;1.48;;;18.80;92.90;;;;;;5107346;28;20023;-75
2022/06/13 05:38:33;;;;;;;2.53;1.30;;;18.80;92.80;;;;;;5106955;28;20076;-74
2022/06/13 05:40:59;;;;;;;2.25;1.30;;;18.80;92.70;;;;;;5106437;28;20278;-74
2022/06/13 05:43:24;;;;;;;2.53;1.27;;;18.80;92.60;;;;;;5107292;28;20574;-74
2022/06/13 05:45:50;;;;;;;3.00;1.20;;;18.80;92.60;;;;;;5107693;28;20030;-74
2022/06/13 05:48:19;;;;;;;3.05;1.45;;;18.80;92.70;;;;;;5105733;28;20032;-74
2022/06/13 05:50:45;;;;;;;1.65;1.20;;;18.80;92.70;;;;;;5108083;28;20019;-75
2022/06/13 05:53:17;;;;;;;2.88;1.50;;;18.80;92.70;;;;;;5107891;28;20034;-75
2022/06/13 05:55:43;;;;;;;2.80;1.40;;;18.80;92.70;;;;;;5107559;28;20502;-75
2022/06/13 05:58:11;;;;;;;2.55;1.50;;;18.80;92.70;;;;;;5108436;28;20020;-75
2022/06/13 06:00:41;;;;;;;2.30;1.20;;;18.80;92.70;;;;;;5107813;28;20027;-74
2022/06/13 06:03:07;;;;;;;2.70;1.30;;;18.80;92.80;;;;;;5106872;28;20031;-74
2022/06/13 06:05:33;;;;;;;2.15;1.48;;;18.80;92.70;;;;;;5107187;28;20042;-74
2022/06/13 06:07:58;;;;;;;2.63;1.40;;;18.80;92.70;;;;;;5108520;28;20035;-74
2022/06/13 06:10:32;;;;;;;3.63;1.80;;;18.80;92.70;;;;;;5106420;28;20099;-74
2022/06/13 06:12:57;;;;;;;1.75;1.27;;;18.80;92.70;;;;;;5108145;28;20517;-74
2022/06/13 06:15:23;;;;;;;3.33;1.60;;;18.80;92.70;;;;;;5109526;28;20066;-76
2022/06/13 06:17:49;;;;;;;4.68;1.52;;;18.80;92.50;;;;;;5107038;28;20027;-74
2022/06/13 06:20:19;;;;;;;3.38;1.40;;;18.80;92.40;;;;;;5106956;28;20058;-75
2022/06/13 06:22:46;;;;;;;2.72;1.40;;;18.80;92.20;;;;;;5106921;28;20030;-73
2022/06/13 06:25:12;;;;;;;4.15;1.58;;;18.90;92.20;;;;;;5106660;28;20027;-74
2022/06/13 06:27:38;;;;;;;4.05;1.55;;;18.90;92.30;;;;;;5106198;28;20563;-74
2022/06/13 06:30:04;;;;;;;2.45;1.30;;;18.90;92.20;;;;;;5106981;28;20027;-74
2022/06/13 06:32:30;;;;;;;3.00;1.38;;;18.90;92.10;;;;;;5108073;28;20035;-75
2022/06/13 06:34:55;;;;;;;3.05;1.40;;;19.00;92.10;;;;;;5106508;28;20027;-76
2022/06/13 06:37:21;;;;;;;2.40;1.30;;;19.00;92.00;;;;;;5107772;28;20076;-75
2022/06/13 06:39:47;;;;;;;2.85;1.52;;;19.00;92.00;;;;;;5107779;28;20062;-73
2022/06/13 06:42:13;;;;;;;3.35;1.55;;;19.00;92.00;;;;;;5106055;28;20820;-74
2022/06/13 06:44:38;;;;;;;2.55;1.30;;;19.00;92.00;;;;;;5105633;28;20039;-74
2022/06/13 06:47:06;;;;;;;2.70;1.40;;;19.00;92.00;;;;;;5107817;28;20020;-76
2022/06/13 06:49:34;;;;;;;4.13;1.60;;;19.00;92.00;;;;;;5106280;28;20019;-74
2022/06/13 06:52:01;;;;;;;2.88;1.40;;;18.90;92.00;;;;;;5106346;28;20050;-78
2022/06/13 06:59:56;;;;;;;2.65;1.40;;;18.90;92.10;;;;;;5109520;28;20089;-75
2022/06/13 07:02:27;;;;;;;2.35;1.40;;;18.90;92.10;;;;;;5107438;28;20023;-76
2022/06/13 07:04:54;;;;;;;2.92;1.30;;;18.90;92.00;;;;;;5106914;28;20039;-76
2022/06/13 07:07:21;;;;;;;2.90;1.40;;;19.00;92.00;;;;;;5110037;28;20051;-77
2022/06/13 07:09:47;;;;;;;2.25;1.23;;;19.00;92.00;;;;;;5108517;28;20081;-76
2022/06/13 07:12:12;;;;;;;4.50;1.60;;;19.00;91.90;;;;;;5108852;28;20027;-77
2022/06/13 07:14:38;;;;;;;2.92;1.50;;;19.00;91.90;;;;;;5108322;28;20035;-77
2022/06/13 07:17:06;;;;;;;2.50;1.30;;;19.00;91.90;;;;;;5108342;28;20107;-77
2022/06/13 07:19:32;;;;;;;4.55;1.58;;;19.00;91.90;;;;;;5107260;28;20027;-78
2022/06/13 07:21:59;;;;;;;3.85;1.55;;;19.00;92.00;;;;;;5108945;28;20047;-77
2022/06/13 07:24:26;;;;;;;2.75;1.38;;;19.10;91.90;;;;;;5108258;28;20042;-77
2022/06/13 07:26:51;;;;;;;2.03;1.35;;;19.10;91.80;;;;;;5109636;28;20031;-78
2022/06/13 07:29:17;;;;;;;3.67;1.70;;;19.20;91.70;;;;;;5110122;28;20030;-77
2022/06/13 07:31:48;;;;;;;2.97;1.50;;;19.20;91.60;;;;;;5108368;28;20042;-78
2022/06/13 07:34:19;;;;;;;2.60;1.40;;;19.30;91.50;;;;;;5107867;28;20035;-76
2022/06/13 07:36:45;;;;;;;;;;;19.30;91.50;;;;;;5110252;28;20055;-78
2022/06/13 07:39:11;;;;;;;2.67;1.50;;;19.30;91.40;;;;;;5107456;28;19957;-78
2022/06/13 07:41:39;;;;;;;2.47;1.40;;;19.30;91.40;;;;;;5109374;28;20047;-76
2022/06/13 07:44:06;;;;;;;3.78;1.50;;;19.30;91.40;;;;;;5108070;28;20030;-77
2022/06/13 07:46:33;;;;;;;3.47;1.52;;;19.30;91.40;;;;;;5107803;28;20058;-77
2022/06/13 07:48:59;;;;;;;2.83;1.45;;;19.30;91.30;;;;;;5107867;28;20031;-77
2022/06/13 07:51:25;;;;;;;2.67;1.20;;;19.30;91.40;;;;;;5109246;28;20486;-77
2022/06/13 07:53:52;;;;;;;3.67;1.50;;;19.40;91.40;;;;;;5108813;28;20032;-79
2022/06/13 07:56:21;;;;;;;2.65;1.50;;;19.30;91.40;;;;;;5107401;28;20034;-76
2022/06/13 07:58:49;;;;;;;3.30;1.80;;;19.30;91.30;;;;;;5106379;28;20023;-77
2022/06/13 08:01:16;;;;;;;2.83;1.70;;;19.30;91.30;;;;;;5107373;28;20472;-75
2022/06/13 08:03:42;;;;;;;4.00;1.75;;;19.30;91.40;;;;;;5107529;28;20629;-77
2022/06/13 08:06:07;;;;;;;3.38;1.70;;;19.30;91.60;;;;;;5107410;28;20088;-77
2022/06/13 08:08:35;;;;;;;3.95;1.80;;;19.30;91.30;;;;;;5107725;28;20043;-77
2022/06/13 08:11:03;;;;;;;3.08;1.60;;;19.30;91.40;;;;;;5107737;28;20019;-77
2022/06/13 08:13:29;;;;;;;3.42;1.90;;;19.30;91.40;;;;;;5107525;28;20028;-77
2022/06/13 08:15:55;;;;;;;4.85;1.95;;;19.40;91.40;;;;;;5107205;28;20031;-77
2022/06/13 08:18:21;;;;;;;3.42;2.00;;;19.40;91.40;;;;;;5107440;28;20020;-78
2022/06/13 08:20:46;;;;;;;3.58;1.88;;;19.30;91.40;;;;;;5107534;28;20474;-77
2022/06/13 08:23:14;;;;;;;2.97;1.73;;;19.40;91.30;;;;;;5108864;28;20061;-77
2022/06/13 08:25:41;;;;;;;3.13;1.70;;;19.40;91.20;;;;;;5108392;28;20019;-78
2022/06/13 08:28:09;;;;;;;4.03;2.03;;;19.40;91.20;;;;;;5108354;28;20019;-76
2022/06/13 08:30:44;;;;;;;3.42;1.70;;;19.40;91.30;;;;;;5107581;28;20055;-77
2022/06/13 08:33:10;;;;;;;3.75;1.88;;;19.50;91.20;;;;;;5108443;28;20045;-76
2022/06/13 08:35:36;;;;;;;3.17;1.60;;;19.50;91.10;;;;;;5093188;28;20133;-77
2022/06/13 08:38:05;;;;;;;3.78;1.70;;;19.50;91.10;;;;;;5086542;28;20027;-78
2022/06/13 08:40:38;;;;;;;5.20;2.00;;;19.50;91.10;;;;;;5087902;28;20024;-76
2022/06/13 08:43:50;;;;;;;3.47;1.77;;;19.40;91.10;;;;;;5086210;28;20016;-76
2022/06/13 08:46:48;;;;;;;2.88;1.65;;;19.40;91.10;;;;;;5072235;28;20040;-75
2022/06/13 08:49:28;;;;;;;3.90;1.90;;;19.40;91.20;;;;;;5085796;28;20592;-77
2022/06/13 08:52:16;;;;;;;2.60;1.67;;;19.40;91.20;;;;;;5086520;28;20077;-75
2022/06/13 08:54:45;;;;;;;6.75;1.80;;;19.40;91.20;;;;;;5085379;28;20066;-77
2022/06/13 08:57:11;;;;;;;2.97;1.75;;;19.40;91.30;;;;;;5087442;28;20051;-74
2022/06/13 08:59:45;;;;;;;3.88;1.85;;;19.40;91.20;;;;;;5086184;28;20125;-77
2022/06/13 09:02:22;;;;;;;3.75;1.70;;;19.40;91.20;;;;;;5089198;28;20031;-77
2022/06/13 09:05:06;;;;;;;2.92;1.67;;;19.40;91.20;;;;;;5086319;28;20063;-77
2022/06/13 09:07:41;;;;;;;3.88;1.70;;;19.40;91.30;;;;;;5086726;28;20032;-79
2022/06/13 09:10:19;;;;;;;3.67;1.90;;;19.40;91.30;;;;;;5086921;28;20020;-77
2022/06/13 09:13:06;;;;;;;3.13;1.65;;;19.40;91.30;;;;;;5087206;28;20060;-77
2022/06/13 09:15:44;;;;;;;3.45;1.83;;;19.40;91.20;;;;;;5086696;28;20119;-79
2022/06/13 09:18:36;;;;;;;3.97;1.80;;;19.50;91.30;;;;;;5088014;28;20533;-77
2022/06/13 09:21:17;;;;;;;3.63;1.88;;;19.50;91.20;;;;;;5087919;28;20111;-76
2022/06/13 09:24:12;;;;;;;3.35;1.88;;;19.50;91.10;;;;;;5086637;28;20035;-78
2022/06/13 09:26:57;;;;;;;3.15;1.67;;;19.50;91.10;;;;;;5086721;28;20036;-77
2022/06/13 09:29:30;;;;;;;3.67;1.70;;;19.50;91.30;;;;;;5086561;28;20039;-79
2022/06/13 09:32:32;;;;;;;3.15;1.70;;;19.50;91.10;;;;;;5086346;28;20122;-77
2022/06/13 09:35:08;;;;;;;3.03;1.70;;;19.50;91.20;;;;;;5054783;28;20751;-76
2022/06/13 09:37:52;;;;;;;4.60;2.00;;;19.40;91.20;;;;;;5087600;28;20028;-77
2022/06/13 09:40:23;;;;;;;3.22;1.60;;;19.40;91.20;;;;;;5087908;28;20024;-77
2022/06/13 09:43:12;;;;;;;3.60;1.60;;;19.40;91.30;;;;;;5086431;28;20025;-77
2022/06/13 09:45:46;;;;;;;3.10;1.63;;;19.40;91.20;;;;;;5086260;28;20061;-78
2022/06/13 09:48:16;;;;;;;3.35;1.70;;;19.50;91.20;;;;;;5087791;28;20024;-78
2022/06/13 09:50:50;;;;;;;2.95;1.70;;;19.50;91.20;;;;;;5087595;28;20515;-78
2022/06/13 09:53:32;;;;;;;3.70;1.63;;;19.50;91.10;;;;;;5086177;28;20400;-76
2022/06/13 09:56:27;;;;;;;4.32;1.88;;;19.50;91.20;;;;;;5085907;28;20377;-77
2022/06/13 09:59:36;;;;;;;2.53;1.50;;;19.50;91.20;;;;;;5070532;28;20258;-78
2022/06/13 10:02:16;;;;;;;3.88;1.60;;;19.50;91.10;;;;;;5087982;28;20020;-77
2022/06/13 10:05:03;;;;;;;3.60;1.80;;;19.50;91.30;;;;;;5090728;28;20129;-78
2022/06/13 10:07:53;;;;;;;5.43;1.80;;;19.60;91.00;;;;;;5089719;28;20032;-76
2022/06/13 10:10:22;;;;;;;3.58;1.73;;;19.60;91.00;;;;;;5090320;28;20028;-77
2022/06/13 10:13:23;;;;;;;4.55;1.88;;;19.50;91.10;;;;;;5088468;28;20089;-77
2022/06/13 10:16:12;;;;;;;4.55;1.90;;;19.60;91.10;;;;;;5088393;28;20024;-77
2022/06/13 10:19:05;;;;;;;3.70;1.70;;;19.50;91.00;;;;;;5091304;28;20024;-77
2022/06/13 10:21:44;;;;;;;3.67;1.63;;;19.50;91.10;;;;;;5089236;28;20111;-76
2022/06/13 10:24:38;;;;;;;3.03;1.58;;;19.50;91.10;;;;;;5090334;28;20039;-77
2022/06/13 10:27:42;;;;;;;3.30;1.70;;;19.50;91.20;;;;;;5089066;28;20020;-77
2022/06/13 10:30:33;;;;;;;3.15;1.75;;;19.40;91.20;;;;;;5056114;28;20118;-78
2022/06/13 10:33:14;;;;;;;3.65;1.90;;;19.40;91.40;;;;;;5088991;28;20027;-78
2022/06/13 10:35:45;;;;;;;;;;;19.30;91.40;;;;;;5107949;28;20401;-76
2022/06/13 10:38:55;;;;;;;3.67;1.70;;;19.30;91.50;;;;;;5110359;28;19912;-77
2022/06/13 10:41:26;;;;;;;4.05;1.58;;;19.30;91.50;;;;;;5110960;28;20054;-76
2022/06/13 10:43:53;;;;;;;3.50;1.75;;;19.30;91.50;;;;;;5107045;28;20059;-73
2022/06/13 10:46:19;;;;;;;4.60;1.67;;;19.20;91.80;;;;;;5105771;28;20038;-73
2022/06/13 10:49:04;;;;;;;3.40;1.73;;;19.20;91.60;;;;;;5107736;28;20047;-76
2022/06/13 10:51:30;;;;;;;2.80;1.60;;;19.30;91.60;;;;;;5107621;28;20899;-75
2022/06/13 10:54:16;;;;;;;3.88;1.73;;;19.30;91.50;;;;;;5108050;28;20118;-75
2022/06/13 10:57:13;;;;;;;3.65;1.80;;;19.30;91.50;;;;;;5109290;28;20895;-77
2022/06/13 10:59:40;;;;;;;2.53;1.48;;;19.30;91.40;;;;;;5108971;28;20042;-76
2022/06/13 11:02:24;;;;;;;2.88;1.45;;;19.30;91.30;;;;;;5108551;28;20502;-76
2022/06/13 11:05:06;;;;;;;3.75;1.73;;;19.40;91.30;;;;;;5107752;28;20046;-77
2022/06/13 11:07:35;;;;;;;4.28;1.95;;;19.50;91.20;;;;;;5107498;28;20160;-76
2022/06/13 11:10:01;;;;;;;3.67;1.60;;;19.50;91.10;;;;;;5109290;28;20058;-76
2022/06/13 11:12:33;;;;;;;4.03;1.50;;;19.60;91.00;;;;;;5105809;28;20028;-75
2022/06/13 11:24:17;;;;;;;2.95;1.60;;;19.60;90.70;;;;;;5088835;28;20173;-76
2022/06/13 11:29:31;;;;;;;3.08;1.35;;;19.60;90.70;;;;;;5088904;28;20606;-77
2022/06/13 11:31:58;;;;;;;4.72;2.03;;;19.60;90.80;;;;;;5088164;28;20064;-76
2022/06/13 11:34:34;;;;;;;3.88;1.67;;;19.50;90.90;;;;;;5087122;28;20081;-75
2022/06/13 11:37:12;;;;;;;4.18;1.80;;;19.50;91.00;;;;;;5085898;28;20093;-76
2022/06/13 11:39:42;;;;;;;2.72;1.48;;;19.40;91.20;;;;;;5086346;28;20043;-76
2022/06/13 11:42:16;;;;;;;3.22;1.60;;;19.30;91.20;;;;;;5088294;28;20034;-77
2022/06/13 11:44:47;;;;;;;3.13;1.70;;;19.40;91.30;;;;;;5087135;28;20032;-75
2022/06/13 11:47:13;;;;;;;2.63;1.40;;;19.30;91.40;;;;;;5090008;28;20024;-76
2022/06/13 11:49:42;;;;;;;2.92;1.50;;;19.30;91.50;;;;;;5091811;28;20028;-75
2022/06/13 11:52:10;;;;;;;2.75;1.52;;;19.30;91.50;;;;;;5093404;28;20520;-79
2022/06/13 11:54:38;;;;;;;2.65;1.50;;;19.20;91.60;;;;;;5091827;28;20027;-77
2022/06/13 11:57:29;;;;;;;2.75;1.40;;;19.20;91.70;;;;;;5093246;28;20107;-77
2022/06/13 12:00:06;;;;;;;2.90;1.38;;;19.20;91.70;;;;;;5093341;28;20016;-75
2022/06/13 12:02:50;;;;;;;1.98;1.30;;;19.20;91.70;;;;;;5093067;28;20648;-76
2022/06/13 12:05:28;;;;;;;3.70;1.55;;;19.20;91.70;;;;;;5092804;28;20131;-77
2022/06/13 12:07:56;;;;;;;2.95;1.50;;;19.20;91.60;;;;;;5093090;28;20077;-77
2022/06/13 12:10:28;;;;;;;2.50;1.40;;;19.30;91.50;;;;;;5093071;28;20044;-77
2022/06/13 12:12:54;;;;;;;2.58;1.50;;;19.30;91.50;;;;;;5092977;28;20032;-77
2022/06/13 12:15:29;;;;;;;2.47;1.35;;;19.30;91.40;;;;;;5092732;28;20078;-77
2022/06/13 12:18:04;;;;;;;3.58;1.40;;;19.30;91.40;;;;;;5093254;28;20073;-76
2022/06/13 12:20:34;;;;;;;2.83;1.38;;;19.30;91.40;;;;;;5091622;28;20028;-77
2022/06/13 12:23:08;;;;;;;2.13;1.50;;;19.30;91.50;;;;;;5091952;28;20435;-77
2022/06/13 12:25:40;;;;;;;2.03;1.33;;;19.20;91.40;;;;;;5090926;28;20039;-76
2022/06/13 12:28:14;;;;;;;3.72;1.60;;;19.30;91.40;;;;;;5091440;28;20024;-76
2022/06/13 12:31:06;;;;;;;3.72;1.50;;;19.30;91.40;;;;;;5092031;28;20050;-77
2022/06/13 12:34:09;;;;;;;3.00;1.70;;;19.30;91.40;;;;;;5090928;28;20024;-77
2022/06/13 12:36:55;;;;;;;2.00;1.33;;;19.30;91.40;;;;;;5091213;28;20481;-78
2022/06/13 12:39:24;;;;;;;3.17;1.58;;;19.30;91.40;;;;;;5091322;28;20499;-77
2022/06/13 12:42:19;;;;;;;2.88;1.40;;;19.30;91.40;;;;;;5091498;28;20481;-76
2022/06/13 12:44:55;;;;;;;3.00;1.58;;;19.30;91.40;;;;;;5092316;28;20062;-77
2022/06/13 12:47:45;;;;;;;3.08;1.58;;;19.30;91.50;;;;;;5091206;28;20563;-77
2022/06/13 12:50:25;;;;;;;2.75;1.52;;;19.30;91.50;;;;;;5091339;28;20028;-77
2022/06/13 12:52:54;;;;;;;2.75;1.38;;;19.30;91.50;;;;;;5091662;28;20112;-76
2022/06/13 12:55:31;;;;;;;3.40;1.60;;;19.30;91.50;;;;;;5093746;28;20024;-76
2022/06/13 12:58:22;;;;;;;2.55;1.40;;;19.30;91.50;;;;;;5109422;28;20020;-73
2022/06/13 13:00:53;;;;;;;2.92;1.30;;;19.30;91.50;;;;;;5110381;28;20020;-72
2022/06/13 13:03:57;;;;;;;3.58;1.40;;;19.30;91.40;;;;;;5110801;28;20020;-73
2022/06/13 13:06:41;;;;;;;3.05;1.45;;;19.40;91.30;;;;;;5091389;28;20035;-73
2022/06/13 13:09:37;;;;;;;2.85;1.30;;;19.40;91.20;;;;;;5112797;28;20127;-73
2022/06/13 13:12:26;;;;;;;2.42;1.35;;;19.40;91.20;;;;;;5110994;28;20023;-76
2022/06/13 13:15:11;;;;;;;2.10;1.40;;;19.30;91.30;;;;;;5112191;28;20023;-72
2022/06/13 13:18:20;;;;;;;3.00;1.48;;;19.30;91.30;;;;;;5112190;28;20030;-73
2022/06/13 13:20:46;;;;;;;2.10;1.27;;;19.20;91.40;;;;;;5110955;28;20024;-72
2022/06/13 13:23:36;;;;;;;2.92;1.48;;;19.20;91.40;;;;;;5110868;28;20026;-73
2022/06/13 13:26:01;;;;;;;;;;;19.20;91.40;;;;;;5110594;28;20444;-74
2022/06/13 13:28:32;;;;;;;2.40;1.20;;;19.20;91.50;;;;;;5112210;28;19946;-72
2022/06/13 13:31:29;;;;;;;2.15;1.38;;;19.20;91.50;;;;;;5110554;28;20026;-75
2022/06/13 13:34:11;;;;;;;1.98;1.27;;;19.20;91.40;;;;;;5110576;28;20024;-74
2022/06/13 13:37:13;;;;;;;2.42;1.42;;;19.20;91.50;;;;;;5111970;28;20016;-73
2022/06/13 13:39:45;;;;;;;2.95;1.38;;;19.20;91.50;;;;;;5114661;28;20020;-74
2022/06/13 13:42:34;;;;;;;2.30;1.20;;;19.20;91.50;;;;;;5112543;28;20020;-81
2022/06/13 13:45:25;;;;;;;2.15;1.20;;;19.20;91.50;;;;;;5093279;28;20544;-72
2022/06/13 13:47:56;;;;;;;2.42;1.30;;;19.20;91.50;;;;;;5098142;28;20039;-73
2022/06/13 13:50:27;;;;;;;2.53;1.42;;;19.20;91.60;;;;;;5115430;28;20035;-71